createdAt,value
2019-06-20T00:01:18.799Z,5.30
2019-06-20T00:03:46.857Z,6.30
2019-06-20T00:06:14.876Z,4.37
2019-06-20T00:08:42.911Z,4.57
2019-06-20T00:11:10.909Z,6.60
2019-06-20T00:13:38.890Z,7.80
2019-06-20T00:16:06.923Z,7.30
2019-06-20T00:18:34.918Z,5.60
2019-06-20T00:21:02.909Z,7.63
2019-06-20T00:23:30.909Z,6.47
2019-06-20T00:25:58.940Z,6.53
2019-06-20T00:28:26.938Z,5.77
2019-06-20T00:30:54.932Z,6.33
2019-06-20T00:33:22.944Z,6.77
2019-06-20T00:35:50.927Z,5.60
2019-06-20T00:38:18.918Z,7.17
2019-06-20T00:40:46.970Z,8.13
2019-06-20T00:43:17.834Z,7.17
2019-06-20T00:45:44.647Z,7.07
2019-06-20T00:48:12.655Z,5.93
2019-06-20T00:50:40.747Z,6.43
2019-06-20T00:53:08.751Z,5.33
2019-06-20T00:55:36.767Z,4.73
2019-06-20T00:58:04.797Z,4.33
2019-06-20T01:00:32.800Z,5.57
2019-06-20T01:03:00.876Z,5.07
2019-06-20T01:05:28.849Z,5.20
2019-06-20T01:07:56.887Z,5.27
2019-06-20T01:10:24.878Z,4.07
2019-06-20T01:12:52.863Z,5.03
2019-06-20T01:15:20.950Z,4.43
2019-06-20T01:17:48.963Z,4.20
2019-06-20T01:20:17.036Z,6.10
2019-06-20T01:22:45.064Z,5.17
2019-06-20T01:25:14.452Z,4.87
2019-06-20T01:27:42.477Z,4.30
2019-06-20T01:30:11.973Z,5.10
2019-06-20T01:32:39.998Z,5.40
2019-06-20T01:35:08.334Z,6.33
2019-06-20T01:38:09.504Z,4.00
2019-06-20T01:40:37.490Z,3.97
2019-06-20T01:43:05.485Z,5.27
2019-06-20T01:45:33.480Z,7.27
2019-06-20T01:48:01.483Z,8.80
2019-06-20T01:50:29.490Z,7.63
2019-06-20T01:52:57.498Z,6.97
2019-06-20T01:55:25.531Z,4.80
2019-06-20T01:57:53.531Z,4.30
2019-06-20T02:00:46.857Z,7.50
2019-06-20T02:03:16.825Z,4.73
2019-06-20T02:05:45.137Z,5.10
2019-06-20T02:08:13.320Z,6.07
2019-06-20T02:10:41.360Z,4.90
2019-06-20T02:13:09.332Z,5.33
2019-06-20T02:15:37.342Z,5.37
2019-06-20T02:18:05.438Z,5.73
2019-06-20T02:20:35.136Z,5.73
2019-06-20T02:23:03.286Z,5.57
2019-06-20T02:25:31.472Z,6.10
2019-06-20T02:27:59.739Z,6.27
2019-06-20T02:30:27.704Z,5.57
2019-06-20T02:32:55.694Z,6.83
2019-06-20T02:35:23.768Z,5.07
2019-06-20T02:37:51.769Z,7.03
2019-06-20T02:40:19.788Z,5.83
2019-06-20T02:42:47.773Z,6.50
2019-06-20T02:45:16.140Z,5.70
2019-06-20T02:47:44.212Z,5.70
2019-06-20T02:50:12.540Z,5.63
2019-06-20T02:52:40.714Z,6.07
2019-06-20T02:55:08.702Z,5.30
2019-06-20T02:57:36.709Z,5.40
2019-06-20T03:00:06.610Z,4.80
2019-06-20T03:02:34.604Z,5.20
2019-06-20T03:05:02.802Z,5.57
2019-06-20T03:07:30.785Z,9.53
2019-06-20T03:09:58.774Z,4.13
2019-06-20T03:12:27.019Z,4.80
2019-06-20T03:14:54.993Z,4.07
2019-06-20T03:17:22.989Z,4.33
2019-06-20T03:19:50.989Z,4.30
2019-06-20T03:22:20.807Z,6.90
2019-06-20T03:24:48.860Z,4.97
2019-06-20T03:27:16.849Z,4.00
2019-06-20T03:29:44.844Z,5.60
2019-06-20T03:32:12.855Z,3.77
2019-06-20T03:34:40.812Z,3.20
2019-06-20T03:37:08.816Z,4.63
2019-06-20T03:39:36.816Z,4.07
2019-06-20T03:42:04.803Z,3.70
2019-06-20T03:44:32.796Z,4.87
2019-06-20T03:47:00.832Z,3.83
2019-06-20T03:49:28.825Z,4.43
2019-06-20T03:51:56.823Z,4.67
2019-06-20T03:54:24.778Z,6.73
2019-06-20T03:56:52.781Z,4.63
2019-06-20T03:59:20.782Z,4.80
2019-06-20T04:01:49.302Z,8.47
2019-06-20T04:04:17.383Z,5.10
2019-06-20T04:06:45.365Z,8.53
2019-06-20T04:09:13.348Z,11.40
2019-06-20T04:11:41.322Z,6.10
2019-06-20T04:14:09.336Z,6.03
2019-06-20T04:16:37.361Z,7.90
2019-06-20T04:19:05.537Z,6.67
2019-06-20T04:21:33.543Z,7.23
2019-06-20T04:24:01.523Z,7.87
2019-06-20T04:26:29.487Z,8.47
2019-06-20T04:28:57.493Z,9.23
2019-06-20T04:31:25.481Z,8.87
2019-06-20T04:33:53.488Z,7.83
2019-06-20T04:36:21.485Z,10.33
2019-06-20T04:38:49.534Z,8.60
2019-06-20T04:41:17.531Z,9.07
2019-06-20T04:43:46.518Z,8.83
2019-06-20T04:46:29.327Z,9.87
2019-06-20T04:48:57.320Z,9.27
2019-06-20T04:51:25.310Z,8.60
2019-06-20T04:53:53.334Z,8.67
2019-06-20T04:56:21.306Z,10.67
2019-06-20T04:58:49.332Z,9.07
2019-06-20T05:01:17.330Z,10.70
2019-06-20T05:03:45.709Z,11.43
2019-06-20T05:06:13.934Z,12.57
2019-06-20T05:08:41.925Z,11.63
2019-06-20T05:11:09.918Z,9.43
2019-06-20T05:13:37.914Z,10.03
2019-06-20T05:16:05.906Z,11.20
2019-06-20T05:18:34.071Z,13.20
2019-06-20T05:21:02.174Z,13.07
2019-06-20T05:23:30.153Z,11.77
2019-06-20T05:25:58.149Z,14.20
2019-06-20T05:28:26.168Z,12.07
2019-06-20T05:30:54.161Z,14.00
2019-06-20T05:33:22.522Z,12.57
2019-06-20T05:35:50.569Z,11.87
2019-06-20T05:38:18.589Z,11.63
2019-06-20T05:40:46.606Z,12.53
2019-06-20T05:43:14.591Z,12.17
2019-06-20T05:45:46.131Z,11.83
2019-06-20T05:48:12.232Z,13.07
2019-06-20T05:50:41.379Z,12.37
2019-06-20T05:53:09.487Z,13.53
2019-06-20T05:55:37.494Z,13.37
2019-06-20T05:58:05.493Z,13.97
2019-06-20T06:00:33.537Z,15.83
2019-06-20T06:03:01.535Z,19.50
2019-06-20T06:05:29.649Z,18.93
2019-06-20T06:07:58.492Z,21.13
2019-06-20T06:10:26.502Z,23.17
2019-06-20T06:12:54.497Z,25.50
2019-06-20T06:15:22.607Z,23.20
2019-06-20T06:17:53.621Z,23.47
2019-06-20T06:20:21.717Z,22.80
2019-06-20T06:22:49.746Z,21.70
2019-06-20T06:25:18.045Z,23.50
2019-06-20T06:27:46.076Z,24.97
2019-06-20T06:30:14.277Z,28.03
2019-06-20T06:32:42.293Z,25.07
2019-06-20T06:35:10.728Z,27.27
2019-06-20T06:37:38.700Z,30.57
2019-06-20T06:40:07.777Z,29.27
2019-06-20T06:42:35.805Z,30.93
2019-06-20T06:45:04.840Z,30.97
2019-06-20T06:47:32.845Z,33.10
2019-06-20T06:50:00.839Z,33.67
2019-06-20T06:52:28.896Z,36.47
2019-06-20T06:54:56.995Z,35.13
2019-06-20T06:57:24.982Z,36.07
2019-06-20T06:59:53.008Z,35.77
2019-06-20T07:02:21.038Z,36.87
2019-06-20T07:04:49.028Z,37.60
2019-06-20T07:07:17.062Z,39.63
2019-06-20T07:09:46.903Z,40.70
2019-06-20T07:12:14.909Z,39.27
2019-06-20T07:18:05.276Z,42.27
2019-06-20T07:20:33.289Z,41.70
2019-06-20T07:23:01.307Z,46.57
2019-06-20T07:25:29.304Z,44.93
2019-06-20T07:27:57.293Z,46.17
2019-06-20T07:30:25.444Z,46.10
2019-06-20T07:32:53.467Z,42.53
2019-06-20T07:35:21.468Z,39.87
2019-06-20T07:37:49.846Z,40.47
2019-06-20T07:40:17.923Z,40.13
2019-06-20T07:42:45.926Z,40.13
2019-06-20T07:45:14.125Z,40.70
2019-06-20T07:47:42.201Z,39.47
2019-06-20T07:50:10.175Z,42.00
2019-06-20T07:52:38.190Z,42.27
2019-06-20T07:55:06.856Z,40.93
2019-06-20T07:57:37.851Z,42.50
2019-06-20T08:00:07.156Z,41.10
2019-06-20T08:02:35.279Z,37.93
2019-06-20T08:08:25.127Z,36.27
2019-06-20T08:14:27.383Z,29.53
2019-06-20T08:16:55.411Z,27.17
2019-06-20T08:19:23.597Z,24.27
2019-06-20T08:25:13.775Z,26.77
2019-06-20T08:27:50.860Z,22.50
2019-06-20T08:30:22.897Z,21.03
2019-06-20T08:32:50.934Z,24.60
2019-06-20T08:35:21.315Z,26.57
2019-06-20T08:37:49.308Z,22.53
2019-06-20T08:40:17.373Z,25.67
2019-06-20T08:42:45.826Z,25.63
2019-06-20T08:48:23.113Z,26.43
2019-06-20T08:51:06.589Z,24.87
2019-06-20T08:53:34.739Z,25.43
2019-06-20T08:56:03.243Z,25.63
2019-06-20T08:58:31.305Z,26.17
2019-06-20T09:01:01.353Z,26.83
2019-06-20T09:03:29.982Z,24.07
2019-06-20T09:05:58.249Z,24.87
2019-06-20T09:08:26.491Z,24.37
2019-06-20T09:10:55.683Z,24.87
2019-06-20T09:13:24.090Z,24.10
2019-06-20T09:15:52.431Z,25.63
2019-06-20T09:18:21.392Z,25.23
2019-06-20T09:20:49.439Z,24.47
2019-06-20T09:23:17.557Z,24.20
2019-06-20T09:25:45.699Z,23.47
2019-06-20T09:28:14.130Z,24.73
2019-06-20T09:30:42.610Z,25.07
2019-06-20T09:33:10.595Z,23.57
2019-06-20T09:35:38.602Z,24.73
2019-06-20T09:38:06.917Z,23.50
2019-06-20T09:40:35.133Z,23.13
2019-06-20T09:43:03.134Z,24.60
2019-06-20T09:45:31.128Z,24.67
2019-06-20T09:47:59.304Z,24.07
2019-06-20T09:50:27.633Z,26.87
2019-06-20T09:52:56.595Z,26.47
2019-06-20T09:55:24.791Z,25.23
2019-06-20T09:57:53.767Z,26.70
2019-06-20T10:00:23.170Z,26.77
2019-06-20T10:02:53.678Z,25.53
2019-06-20T10:05:21.053Z,25.90
2019-06-20T10:07:50.304Z,26.97
2019-06-20T10:10:18.822Z,26.37
2019-06-20T10:12:47.969Z,28.60
2019-06-20T10:15:20.313Z,26.23
2019-06-20T10:17:48.555Z,26.43
2019-06-20T10:20:16.686Z,26.17
2019-06-20T10:22:45.886Z,25.10
2019-06-20T10:25:14.345Z,28.27
2019-06-20T10:27:42.471Z,26.20
2019-06-20T10:30:14.509Z,26.67
2019-06-20T10:32:40.395Z,26.87
2019-06-20T10:35:08.506Z,25.40
2019-06-20T10:37:36.533Z,24.23
2019-06-20T10:40:05.146Z,22.20
2019-06-20T10:42:33.139Z,20.90
2019-06-20T10:45:01.171Z,19.87
2019-06-20T10:47:35.011Z,17.70
2019-06-20T10:49:59.155Z,18.60
2019-06-20T10:52:27.161Z,16.47
2019-06-20T10:54:55.267Z,13.20
2019-06-20T10:57:23.324Z,12.53
2019-06-20T10:59:51.341Z,11.93
2019-06-20T11:02:19.346Z,12.07
2019-06-20T11:04:47.767Z,12.20
2019-06-20T11:07:15.893Z,15.93
2019-06-20T11:09:45.130Z,9.03
2019-06-20T11:12:13.229Z,9.97
2019-06-20T11:17:50.774Z,13.50
2019-06-20T11:20:18.957Z,9.30
2019-06-20T11:22:47.884Z,12.57
2019-06-20T11:25:19.301Z,8.97
2019-06-20T11:27:55.907Z,9.67
2019-06-20T11:30:24.127Z,12.37
2019-06-20T11:32:52.158Z,9.83
2019-06-20T11:35:20.159Z,8.77
2019-06-20T11:37:48.164Z,9.47
2019-06-20T11:40:16.926Z,10.03
2019-06-20T11:42:44.850Z,11.13
2019-06-20T11:45:13.061Z,11.37
2019-06-20T11:47:42.442Z,10.20
2019-06-20T11:50:10.945Z,10.97
2019-06-20T11:52:42.461Z,9.73
2019-06-20T11:55:08.767Z,14.60
2019-06-20T11:57:36.785Z,9.13
2019-06-20T12:00:05.506Z,12.13
2019-06-20T12:02:33.477Z,9.93
2019-06-20T12:05:01.493Z,9.73
2019-06-20T12:07:29.532Z,9.40
2019-06-20T12:09:57.527Z,11.47
2019-06-20T12:12:25.706Z,11.13
2019-06-20T12:14:53.687Z,11.70
2019-06-20T12:17:21.715Z,12.93
2019-06-20T12:19:49.737Z,12.90
2019-06-20T12:22:17.762Z,12.20
2019-06-20T12:24:46.702Z,11.27
2019-06-20T12:27:14.820Z,14.30
2019-06-20T12:29:42.839Z,13.23
2019-06-20T12:32:11.200Z,13.03
2019-06-20T12:34:40.535Z,13.00
2019-06-20T12:37:08.675Z,14.23
2019-06-20T12:39:38.625Z,13.07
2019-06-20T12:42:06.423Z,12.47
2019-06-20T12:44:34.482Z,11.27
2019-06-20T12:47:02.473Z,9.33
2019-06-20T12:49:30.482Z,9.67
2019-06-20T12:51:58.624Z,7.80
2019-06-20T12:54:29.961Z,10.00
2019-06-20T12:57:11.491Z,7.57
2019-06-20T12:59:41.002Z,10.57
2019-06-20T13:02:09.578Z,9.87
2019-06-20T13:04:38.794Z,13.87
2019-06-20T13:07:07.166Z,10.20
2019-06-20T13:09:35.235Z,9.50
2019-06-20T13:12:03.233Z,12.00
2019-06-20T13:14:31.328Z,10.87
2019-06-20T13:16:59.302Z,7.60
2019-06-20T13:19:27.336Z,10.40
2019-06-20T13:21:57.392Z,10.80
2019-06-20T13:24:25.471Z,9.20
2019-06-20T13:26:53.797Z,9.03
2019-06-20T13:29:21.914Z,12.63
2019-06-20T13:32:01.902Z,13.27
2019-06-20T13:34:19.596Z,11.13
2019-06-20T13:36:49.017Z,10.67
2019-06-20T13:39:17.097Z,11.07
2019-06-20T13:41:45.750Z,16.97
2019-06-20T13:44:14.861Z,11.07
2019-06-20T13:46:44.569Z,11.67
2019-06-20T13:49:12.603Z,9.13
2019-06-20T13:51:41.908Z,9.93
2019-06-20T13:54:19.408Z,9.77
2019-06-20T13:56:47.587Z,10.93
2019-06-20T13:59:15.698Z,11.80
2019-06-20T14:01:45.646Z,10.50
2019-06-20T14:04:13.388Z,11.10
2019-06-20T14:06:42.558Z,10.53
2019-06-20T14:09:11.169Z,8.93
2019-06-20T14:11:40.050Z,8.70
2019-06-20T14:14:08.984Z,10.60
2019-06-20T14:16:37.062Z,13.63
2019-06-20T14:19:05.125Z,13.27
2019-06-20T14:21:33.169Z,13.27
2019-06-20T14:24:01.171Z,11.80
2019-06-20T14:26:29.198Z,14.57
2019-06-20T14:32:18.791Z,12.83
2019-06-20T14:34:36.672Z,14.77
2019-06-20T14:37:04.826Z,13.53
2019-06-20T14:39:34.187Z,10.03
2019-06-20T14:42:02.396Z,12.60
2019-06-20T14:44:46.011Z,13.30
2019-06-20T14:47:15.814Z,11.27
2019-06-20T14:49:43.913Z,9.60
2019-06-20T14:52:12.086Z,10.33
2019-06-20T14:54:40.105Z,9.67
2019-06-20T14:57:08.181Z,20.70
2019-06-20T14:59:36.150Z,15.03
2019-06-20T15:02:04.190Z,8.83
2019-06-20T15:04:32.184Z,9.90
2019-06-20T15:07:00.247Z,9.17
2019-06-20T15:09:28.254Z,7.00
2019-06-20T15:11:56.275Z,10.00
2019-06-20T15:14:24.338Z,9.70
2019-06-20T15:17:04.761Z,8.93
2019-06-20T15:19:32.834Z,11.17
2019-06-20T15:22:00.991Z,11.67
2019-06-20T15:24:29.105Z,13.73
2019-06-20T15:26:57.091Z,11.73
2019-06-20T15:29:25.128Z,13.13
2019-06-20T15:31:54.745Z,12.27
2019-06-20T15:34:23.078Z,11.87
2019-06-20T15:36:51.534Z,13.17
2019-06-20T15:39:19.781Z,12.10
2019-06-20T15:42:08.599Z,11.37
2019-06-20T15:44:36.627Z,17.50
2019-06-20T15:47:04.629Z,14.00
2019-06-20T15:49:32.830Z,11.90
2019-06-20T15:52:00.814Z,14.77
2019-06-20T15:54:30.386Z,12.43
2019-06-20T15:56:58.790Z,12.82
2019-06-20T15:59:26.805Z,10.93
2019-06-20T16:01:54.911Z,15.27
2019-06-20T16:04:22.969Z,12.27
2019-06-20T16:06:51.601Z,10.23
2019-06-20T16:09:19.932Z,10.90
2019-06-20T16:11:47.961Z,9.23
2019-06-20T16:14:18.096Z,8.13
2019-06-20T16:16:46.599Z,8.63
2019-06-20T16:19:14.934Z,5.00
2019-06-20T16:21:42.880Z,4.47
2019-06-20T16:24:12.725Z,4.57
2019-06-20T16:26:40.565Z,4.53
2019-06-20T16:32:18.644Z,4.47
2019-06-20T16:34:46.959Z,7.43
2019-06-20T16:37:15.063Z,7.43
2019-06-20T16:39:43.124Z,6.27
2019-06-20T16:42:11.297Z,6.10
2019-06-20T16:44:39.377Z,7.30
2019-06-20T16:47:07.387Z,6.77
2019-06-20T16:49:35.475Z,9.23
2019-06-20T16:52:03.533Z,13.40
2019-06-20T16:54:32.325Z,8.73
2019-06-20T16:57:00.608Z,7.27
2019-06-20T16:59:28.582Z,7.07
2019-06-20T17:01:59.685Z,7.63
2019-06-20T17:04:27.799Z,10.97
2019-06-20T17:06:55.897Z,10.63
2019-06-20T17:09:23.991Z,10.90
2019-06-20T17:15:00.938Z,6.57
2019-06-20T17:17:28.950Z,6.47
2019-06-20T17:19:57.097Z,6.30
2019-06-20T17:22:25.129Z,12.80
2019-06-20T17:24:53.169Z,8.60
2019-06-20T17:27:21.185Z,8.80
2019-06-20T17:29:49.210Z,6.57
2019-06-20T17:32:17.264Z,10.27
2019-06-20T17:34:45.233Z,9.63
2019-06-20T17:37:13.269Z,10.97
2019-06-20T17:39:41.376Z,8.17
2019-06-20T17:42:09.419Z,21.00
2019-06-20T17:44:37.517Z,10.47
2019-06-20T17:47:05.532Z,11.37
2019-06-20T17:49:57.612Z,9.17
2019-06-20T17:52:25.683Z,8.60
2019-06-20T17:55:14.709Z,8.23
2019-06-20T17:57:42.778Z,9.73
2019-06-20T18:00:11.207Z,9.10
2019-06-20T18:02:39.333Z,9.73
2019-06-20T18:05:07.684Z,10.13
2019-06-20T18:07:36.126Z,8.73
2019-06-20T18:10:04.892Z,9.13
2019-06-20T18:12:32.925Z,9.20
2019-06-20T18:15:00.948Z,15.60
2019-06-20T18:17:29.002Z,14.03
2019-06-20T18:19:57.006Z,9.63
2019-06-20T18:22:25.043Z,9.57
2019-06-20T18:24:53.258Z,9.13
2019-06-20T18:27:21.528Z,8.20
2019-06-20T18:29:49.639Z,11.23
2019-06-20T18:32:17.958Z,9.87
2019-06-20T18:35:00.897Z,9.40
2019-06-20T18:37:30.578Z,9.10
2019-06-20T18:39:46.747Z,9.20
2019-06-20T18:42:15.383Z,9.07
2019-06-20T18:44:43.842Z,8.20
2019-06-20T18:47:11.523Z,7.43
2019-06-20T18:49:39.640Z,18.43
2019-06-20T18:52:07.764Z,12.23
2019-06-20T18:54:35.919Z,12.03
2019-06-20T18:57:04.164Z,8.13
2019-06-20T18:59:32.945Z,12.57
2019-06-20T19:02:01.804Z,9.23
2019-06-20T19:04:42.275Z,10.43
2019-06-20T19:06:59.713Z,9.13
2019-06-20T19:12:37.723Z,9.47
2019-06-20T19:15:05.866Z,9.27
2019-06-20T19:17:33.968Z,10.10
2019-06-20T19:20:02.135Z,9.20
2019-06-20T19:22:30.339Z,8.77
2019-06-20T19:24:58.573Z,7.93
2019-06-20T19:27:27.028Z,10.60
2019-06-20T19:29:55.229Z,10.20
2019-06-20T19:32:23.276Z,10.83
2019-06-20T19:35:01.360Z,9.83
2019-06-20T19:37:21.092Z,10.07
2019-06-20T19:39:49.273Z,11.03
2019-06-20T19:42:20.383Z,9.90
2019-06-20T19:44:47.676Z,10.23
2019-06-20T19:47:15.692Z,10.53
2019-06-20T19:49:43.772Z,10.03
2019-06-20T19:52:11.957Z,11.27
2019-06-20T19:54:40.108Z,11.20
2019-06-20T19:57:08.601Z,11.30
2019-06-20T19:59:36.834Z,11.07
2019-06-20T20:02:05.373Z,11.00
2019-06-20T20:04:33.683Z,10.30
2019-06-20T20:07:01.934Z,11.70
2019-06-20T20:09:30.230Z,11.73
2019-06-20T20:11:58.412Z,11.27
2019-06-20T20:14:26.777Z,10.33
2019-06-20T20:16:55.496Z,10.80
2019-06-20T20:22:45.466Z,11.93
2019-06-20T20:25:13.770Z,14.27
2019-06-20T20:27:42.185Z,14.83
2019-06-20T20:30:11.576Z,14.13
2019-06-20T20:32:39.754Z,11.80
2019-06-20T20:35:07.951Z,14.17
2019-06-20T20:37:36.171Z,14.23
2019-06-20T20:40:04.997Z,14.27
2019-06-20T20:42:33.089Z,15.80
2019-06-20T20:45:37.361Z,16.23
2019-06-20T20:48:05.754Z,15.33
2019-06-20T20:50:33.826Z,17.57
2019-06-20T20:56:11.133Z,17.13
2019-06-20T20:58:39.269Z,19.30
2019-06-20T21:01:10.533Z,18.10
2019-06-20T21:03:38.600Z,17.27
2019-06-20T21:06:06.583Z,15.00
2019-06-20T21:08:34.684Z,15.00
2019-06-20T21:11:02.770Z,16.93
2019-06-20T21:13:30.761Z,16.03
2019-06-20T21:15:58.773Z,14.70
2019-06-20T21:18:26.776Z,15.73
2019-06-20T21:20:54.795Z,15.90
2019-06-20T21:23:22.837Z,14.07
2019-06-20T21:25:50.939Z,16.27
2019-06-20T21:28:18.953Z,17.47
2019-06-20T21:30:46.974Z,15.30
2019-06-20T21:33:15.388Z,14.97
2019-06-20T21:35:43.395Z,14.50
2019-06-20T21:38:11.428Z,14.27
2019-06-20T21:40:39.435Z,14.17
2019-06-20T21:43:07.459Z,13.13
2019-06-20T21:45:35.475Z,14.53
2019-06-20T21:48:03.473Z,14.47
2019-06-20T21:50:31.509Z,13.97
2019-06-20T21:52:59.615Z,13.07
2019-06-20T21:55:27.678Z,13.77
2019-06-20T21:57:55.684Z,12.77
2019-06-20T22:00:27.708Z,12.83
2019-06-20T22:02:55.702Z,13.70
2019-06-20T22:05:23.728Z,13.87
2019-06-20T22:07:51.756Z,13.13
2019-06-20T22:10:20.565Z,13.00
2019-06-20T22:12:48.877Z,13.93
2019-06-20T22:15:16.859Z,13.87
2019-06-20T22:17:44.915Z,14.17
2019-06-20T22:20:13.137Z,13.13
2019-06-20T22:22:41.182Z,12.50
2019-06-20T22:25:09.370Z,12.70
2019-06-20T22:27:37.404Z,13.47
2019-06-20T22:30:06.251Z,15.90
2019-06-20T22:32:34.277Z,14.60
2019-06-20T22:35:02.323Z,12.13
2019-06-20T22:37:30.356Z,11.90
2019-06-20T22:39:58.347Z,11.50
2019-06-20T22:42:26.324Z,11.27
2019-06-20T22:44:54.323Z,12.90
2019-06-20T22:47:22.327Z,11.27
2019-06-20T22:49:50.351Z,11.57
2019-06-20T22:52:18.361Z,11.33
2019-06-20T22:54:46.344Z,10.20
2019-06-20T22:57:14.376Z,11.10
2019-06-20T22:59:42.462Z,9.83
2019-06-20T23:02:11.646Z,8.77
2019-06-20T23:04:39.593Z,9.73
2019-06-20T23:07:07.603Z,8.27
2019-06-20T23:09:35.572Z,10.63
2019-06-20T23:12:03.589Z,7.20
2019-06-20T23:14:31.587Z,7.33
2019-06-20T23:16:59.586Z,8.30
2019-06-20T23:19:27.607Z,9.83
2019-06-20T23:21:55.620Z,7.13
2019-06-20T23:24:23.659Z,6.97
2019-06-20T23:26:51.632Z,6.57
2019-06-20T23:29:25.586Z,8.67
2019-06-20T23:31:54.277Z,6.20
2019-06-20T23:34:22.279Z,6.07
2019-06-20T23:36:50.280Z,7.80
2019-06-20T23:39:18.291Z,8.47
2019-06-20T23:41:46.259Z,8.40
2019-06-20T23:44:14.231Z,7.00
2019-06-20T23:46:42.253Z,7.67
2019-06-20T23:49:10.268Z,6.47
2019-06-20T23:51:42.375Z,6.17
2019-06-20T23:54:10.358Z,6.77
2019-06-20T23:56:38.367Z,4.77
2019-06-20T23:59:06.374Z,5.03
